Time;durP1;ratioP1;P1;durP2;ratioP2;P2;SDS_P1;SDS_P2;PMS_P1;PMS_P2;Temp;Humidity;BMP_temperature;BMP_pressure;BME280_temperature;BME280_humidity;BME280_pressure;Samples;Min_cycle;Max_cycle;Signal;HPM_P1;HPM_P2
2023/07/10 00:01:40;;;;;;;8.83;7.50;;;;;;;;;;4962748;28;20503;-84
2023/07/10 00:04:14;;;;;;;8.70;7.50;;;;;;;;;;4963229;28;20683;-84
2023/07/10 00:06:42;;;;;;;7.97;7.37;;;;;;;;;;4963343;28;20412;-85
2023/07/10 00:09:09;;;;;;;9.50;7.90;;;;;;;;;;4963622;28;20460;-86
2023/07/10 00:11:37;;;;;;;8.37;7.57;;;;;;;;;;4960895;28;20589;-85
2023/07/10 00:14:21;;;;;;;8.73;7.93;;;;;;;;;;4962424;28;20886;-84
2023/07/10 00:16:49;;;;;;;7.50;6.90;;;;;;;;;;4956474;29;20473;-83
2023/07/10 00:19:18;;;;;;;8.70;7.83;;;;;;;;;;4957490;29;20785;-85
2023/07/10 00:21:49;;;;;;;7.60;7.00;;;;;;;;;;4958423;29;20420;-83
2023/07/10 00:24:17;;;;;;;9.40;7.10;;;;;;;;;;4965376;29;20522;-87
2023/07/10 00:26:44;;;;;;;7.70;6.90;;;;;;;;;;4964253;28;20452;-86
2023/07/10 00:29:22;;;;;;;9.70;8.33;;;;;;;;;;4962181;29;20428;-84
2023/07/10 00:31:50;;;;;;;9.30;8.30;;;;;;;;;;4964006;28;20510;-81
2023/07/10 00:34:17;;;;;;;13.30;8.73;;;;;;;;;;4962658;29;20669;-83
2023/07/10 00:36:50;;;;;;;8.63;7.93;;;;;;;;;;4961224;28;20454;-84
2023/07/10 00:39:26;;;;;;;8.60;7.80;;;;;;;;;;4961813;29;20678;-85
2023/07/10 00:41:55;;;;;;;8.57;7.87;;;;;;;;;;4954868;29;20423;-83
2023/07/10 00:44:25;;;;;;;8.73;7.83;;;;;;;;;;4965738;28;20459;-81
2023/07/10 00:46:55;;;;;;;8.77;7.83;;;;;;;;;;4955891;29;20837;-82
2023/07/10 00:49:23;;;;;;;7.80;7.20;;;;;;;;;;4957759;28;20436;-82
2023/07/10 00:52:10;;;;;;;8.70;7.90;;;;;;;;;;4960583;29;20414;-81
2023/07/10 00:54:40;;;;;;;10.33;8.03;;;;;;;;;;4964709;28;20582;-81
2023/07/10 00:57:13;;;;;;;7.17;6.60;;;;;;;;;;4960465;28;20676;-83
2023/07/10 00:59:41;;;;;;;7.93;7.20;;;;;;;;;;4966455;28;20475;-83
2023/07/10 01:02:12;;;;;;;10.30;7.70;;;;;;;;;;4960557;29;20525;-81
2023/07/10 01:04:40;;;;;;;11.63;7.40;;;;;;;;;;4960977;28;20508;-82
2023/07/10 01:07:08;;;;;;;7.07;6.57;;;;;;;;;;4957189;28;20523;-81
2023/07/10 01:09:36;;;;;;;7.60;7.00;;;;;;;;;;4959404;29;20502;-81
2023/07/10 01:12:05;;;;;;;7.50;6.90;;;;;;;;;;4960738;28;20622;-82
2023/07/10 01:14:36;;;;;;;9.60;7.47;;;;;;;;;;4961072;28;20465;-81
2023/07/10 01:17:07;;;;;;;8.60;7.80;;;;;;;;;;4960885;28;20475;-83
2023/07/10 01:19:36;;;;;;;7.33;6.70;;;;;;;;;;4961949;29;20476;-82
2023/07/10 01:22:09;;;;;;;7.57;7.00;;;;;;;;;;4964441;28;20443;-82
2023/07/10 01:24:37;;;;;;;7.80;7.00;;;;;;;;;;4959680;29;20449;-81
2023/07/10 01:27:07;;;;;;;8.50;7.70;;;;;;;;;;4961911;28;20752;-81
2023/07/10 01:29:36;;;;;;;7.97;7.40;;;;;;;;;;4961251;28;20449;-84
2023/07/10 01:32:13;;;;;;;8.67;7.73;;;;;;;;;;4959905;28;20881;-85
2023/07/10 01:34:51;;;;;;;9.73;7.77;;;;;;;;;;4959931;29;20505;-82
2023/07/10 01:37:20;;;;;;;7.60;6.77;;;;;;;;;;4957501;29;20400;-83
2023/07/10 01:39:52;;;;;;;8.70;7.67;;;;;;;;;;4961881;29;20420;-83
2023/07/10 01:42:25;;;;;;;8.03;7.20;;;;;;;;;;4961698;28;20472;-81
2023/07/10 01:44:53;;;;;;;8.47;7.73;;;;;;;;;;4953429;29;20504;-81
2023/07/10 01:47:20;;;;;;;8.37;7.63;;;;;;;;;;4960962;28;20832;-80
2023/07/10 01:49:49;;;;;;;9.73;8.93;;;;;;;;;;4960418;28;20457;-82
2023/07/10 01:52:18;;;;;;;8.00;7.40;;;;;;;;;;4960550;28;20445;-81
2023/07/10 01:54:46;;;;;;;8.50;7.80;;;;;;;;;;4959602;28;20548;-81
2023/07/10 01:57:14;;;;;;;10.30;8.30;;;;;;;;;;4960235;29;20477;-81
2023/07/10 01:59:42;;;;;;;8.53;7.93;;;;;;;;;;4960781;28;20417;-80
2023/07/10 02:02:09;;;;;;;8.57;7.77;;;;;;;;;;4950892;28;20516;-79
2023/07/10 02:04:37;;;;;;;8.03;6.90;;;;;;;;;;4957135;29;20513;-82
2023/07/10 02:07:05;;;;;;;9.63;8.83;;;;;;;;;;4954935;29;20798;-81
2023/07/10 02:09:32;;;;;;;9.43;8.63;;;;;;;;;;4959805;28;20458;-82
2023/07/10 02:12:00;;;;;;;8.70;8.00;;;;;;;;;;4957979;28;20707;-81
2023/07/10 02:14:29;;;;;;;8.80;7.70;;;;;;;;;;4960620;29;20519;-82
2023/07/10 02:16:56;;;;;;;8.70;7.80;;;;;;;;;;4955948;29;20445;-81
2023/07/10 02:19:23;;;;;;;8.57;7.77;;;;;;;;;;4960919;29;20420;-81
2023/07/10 02:21:51;;;;;;;11.32;8.63;;;;;;;;;;4960200;28;20983;-81
2023/07/10 02:24:19;;;;;;;8.97;8.20;;;;;;;;;;4955528;29;20282;-82
2023/07/10 02:26:50;;;;;;;8.50;7.77;;;;;;;;;;4960420;29;20448;-84
2023/07/10 02:29:20;;;;;;;11.43;8.63;;;;;;;;;;4961748;29;20460;-87
2023/07/10 02:31:51;;;;;;;10.13;8.87;;;;;;;;;;4960504;29;20474;-81
2023/07/10 02:34:19;;;;;;;9.07;8.13;;;;;;;;;;4961427;28;20599;-82
2023/07/10 02:36:46;;;;;;;8.07;7.37;;;;;;;;;;4971063;28;20524;-83
2023/07/10 02:39:14;;;;;;;8.80;8.10;;;;;;;;;;4964316;28;20702;-81
2023/07/10 02:41:44;;;;;;;9.07;7.63;;;;;;;;;;4967373;28;20420;-81
2023/07/10 02:44:12;;;;;;;9.47;8.70;;;;;;;;;;4961949;29;20437;-81
2023/07/10 02:46:40;;;;;;;7.90;7.30;;;;;;;;;;4953534;28;20492;-80
2023/07/10 02:49:09;;;;;;;9.40;8.50;;;;;;;;;;4960364;28;20483;-86
2023/07/10 02:51:40;;;;;;;11.50;8.20;;;;;;;;;;4953345;28;20530;-83
2023/07/10 02:54:14;;;;;;;9.93;8.10;;;;;;;;;;4960334;28;20499;-81
2023/07/10 02:56:42;;;;;;;10.27;9.20;;;;;;;;;;4963991;28;20456;-80
2023/07/10 02:59:09;;;;;;;9.17;8.47;;;;;;;;;;4963460;29;20449;-84
2023/07/10 03:01:39;;;;;;;9.40;8.60;;;;;;;;;;4961951;29;20451;-80
2023/07/10 03:04:18;;;;;;;8.13;7.53;;;;;;;;;;4960233;28;20532;-81
2023/07/10 03:06:50;;;;;;;8.97;8.17;;;;;;;;;;4962539;28;20653;-84
2023/07/10 03:09:18;;;;;;;9.40;8.53;;;;;;;;;;4956897;28;20537;-83
2023/07/10 03:11:53;;;;;;;10.23;8.93;;;;;;;;;;4961137;29;20528;-84
2023/07/10 03:14:22;;;;;;;9.60;8.70;;;;;;;;;;4963257;28;20488;-83
2023/07/10 03:16:51;;;;;;;10.00;9.07;;;;;;;;;;4964371;28;20587;-81
2023/07/10 03:19:20;;;;;;;9.50;8.50;;;;;;;;;;4961465;28;20428;-83
2023/07/10 03:21:54;;;;;;;9.10;8.50;;;;;;;;;;4962892;29;20439;-82
2023/07/10 03:24:29;;;;;;;9.13;8.20;;;;;;;;;;4959220;28;20430;-83
2023/07/10 03:26:57;;;;;;;9.10;8.27;;;;;;;;;;4962657;28;20428;-82
2023/07/10 03:29:28;;;;;;;9.23;8.30;;;;;;;;;;4955619;29;20450;-81
2023/07/10 03:31:57;;;;;;;9.60;8.90;;;;;;;;;;4961234;28;20508;-83
2023/07/10 03:34:25;;;;;;;9.70;8.90;;;;;;;;;;4956878;29;20903;-81
2023/07/10 03:36:53;;;;;;;9.73;8.93;;;;;;;;;;4956002;29;20513;-81
2023/07/10 03:39:20;;;;;;;9.77;8.87;;;;;;;;;;4958324;29;20491;-82
2023/07/10 03:41:48;;;;;;;8.87;8.17;;;;;;;;;;4962507;28;20452;-81
2023/07/10 03:44:17;;;;;;;10.00;8.97;;;;;;;;;;4959487;28;20517;-81
2023/07/10 03:46:45;;;;;;;10.17;8.93;;;;;;;;;;4962749;29;20840;-82
2023/07/10 03:49:13;;;;;;;13.40;8.70;;;;;;;;;;4969989;28;20457;-86
2023/07/10 03:51:40;;;;;;;10.90;9.80;;;;;;;;;;4974373;28;20529;-83
2023/07/10 03:54:17;;;;;;;9.67;8.73;;;;;;;;;;4966315;28;20491;-85
2023/07/10 03:56:47;;;;;;;11.43;10.30;;;;;;;;;;4965881;28;20445;-81
2023/07/10 03:59:18;;;;;;;10.40;9.60;;;;;;;;;;4967052;28;20435;-87
2023/07/10 04:01:46;;;;;;;10.37;9.33;;;;;;;;;;4962762;28;20540;-83
2023/07/10 04:04:16;;;;;;;17.53;9.90;;;;;;;;;;4962474;28;20456;-80
2023/07/10 04:06:47;;;;;;;10.30;9.30;;;;;;;;;;4961076;28;20445;-82
2023/07/10 04:09:18;;;;;;;9.77;8.87;;;;;;;;;;4961472;28;20598;-80
2023/07/10 04:11:46;;;;;;;11.40;10.40;;;;;;;;;;4962362;28;20533;-80
2023/07/10 04:14:14;;;;;;;10.00;9.10;;;;;;;;;;4961470;28;20541;-80
2023/07/10 04:16:42;;;;;;;11.40;10.30;;;;;;;;;;4961315;29;20449;-81
2023/07/10 04:19:09;;;;;;;11.30;9.50;;;;;;;;;;4962411;28;20504;-81
2023/07/10 04:21:38;;;;;;;11.00;10.10;;;;;;;;;;4961116;29;20491;-81
2023/07/10 04:24:06;;;;;;;11.67;9.40;;;;;;;;;;4962193;28;20536;-82
2023/07/10 04:26:34;;;;;;;12.17;11.03;;;;;;;;;;4961248;29;20733;-80
2023/07/10 04:29:03;;;;;;;12.07;10.90;;;;;;;;;;4956459;29;20762;-85
2023/07/10 04:31:31;;;;;;;16.43;11.63;;;;;;;;;;4962263;28;20644;-81
2023/07/10 04:33:59;;;;;;;12.40;11.10;;;;;;;;;;4960853;28;20592;-81
2023/07/10 04:36:26;;;;;;;12.10;11.00;;;;;;;;;;4961258;28;20442;-83
2023/07/10 04:38:54;;;;;;;12.87;11.77;;;;;;;;;;4960699;28;20515;-81
2023/07/10 04:41:23;;;;;;;14.67;10.80;;;;;;;;;;4959039;29;20453;-78
2023/07/10 04:43:50;;;;;;;14.60;11.87;;;;;;;;;;4960321;28;20431;-80
2023/07/10 04:46:19;;;;;;;11.80;10.80;;;;;;;;;;4960611;28;20520;-79
2023/07/10 04:48:47;;;;;;;14.00;12.13;;;;;;;;;;4959807;28;20528;-77
2023/07/10 04:51:15;;;;;;;12.67;11.20;;;;;;;;;;4958554;28;20739;-77
2023/07/10 04:53:44;;;;;;;13.07;11.63;;;;;;;;;;4957632;28;20469;-79
2023/07/10 04:56:13;;;;;;;13.10;11.77;;;;;;;;;;4954616;28;21029;-78
2023/07/10 04:58:54;;;;;;;12.60;10.87;;;;;;;;;;4959883;28;20420;-83
2023/07/10 05:01:23;;;;;;;19.83;12.00;;;;;;;;;;4959788;28;20836;-78
2023/07/10 05:03:51;;;;;;;12.03;10.83;;;;;;;;;;4959457;28;20445;-78
2023/07/10 05:06:19;;;;;;;13.63;12.33;;;;;;;;;;4960205;28;20475;-81
2023/07/10 05:08:47;;;;;;;11.60;10.50;;;;;;;;;;4959045;28;20479;-78
2023/07/10 05:11:15;;;;;;;12.30;11.10;;;;;;;;;;4959763;28;20491;-76
2023/07/10 05:13:44;;;;;;;16.20;12.07;;;;;;;;;;4959921;28;20424;-79
2023/07/10 05:16:15;;;;;;;12.47;11.47;;;;;;;;;;4960508;28;20463;-86
2023/07/10 05:18:43;;;;;;;11.27;10.30;;;;;;;;;;4958624;28;21090;-78
2023/07/10 05:21:10;;;;;;;13.30;12.00;;;;;;;;;;4958618;28;20804;-78
2023/07/10 05:23:39;;;;;;;12.07;11.00;;;;;;;;;;4956865;28;20475;-78
2023/07/10 05:26:14;;;;;;;12.60;11.50;;;;;;;;;;4959109;28;20491;-80
2023/07/10 05:28:41;;;;;;;12.17;10.73;;;;;;;;;;4956419;28;20771;-78
2023/07/10 05:31:10;;;;;;;12.87;11.43;;;;;;;;;;4959902;28;20424;-81
2023/07/10 05:33:39;;;;;;;13.57;12.23;;;;;;;;;;4952295;28;20837;-80
2023/07/10 05:36:09;;;;;;;12.73;11.30;;;;;;;;;;4956843;29;20467;-80
2023/07/10 05:38:37;;;;;;;13.63;12.03;;;;;;;;;;4952638;28;20451;-80
2023/07/10 05:41:05;;;;;;;15.67;13.77;;;;;;;;;;4964027;28;20467;-77
2023/07/10 05:43:34;;;;;;;26.73;12.47;;;;;;;;;;4958347;28;20449;-80
2023/07/10 05:46:05;;;;;;;16.13;12.10;;;;;;;;;;4955572;28;20467;-79
2023/07/10 05:48:34;;;;;;;12.00;10.90;;;;;;;;;;4949286;29;20490;-76
2023/07/10 05:51:01;;;;;;;12.83;11.80;;;;;;;;;;4960164;28;20423;-78
2023/07/10 05:53:29;;;;;;;13.43;12.20;;;;;;;;;;4954854;29;20490;-81
2023/07/10 05:56:00;;;;;;;12.93;11.93;;;;;;;;;;4952901;29;20464;-84
2023/07/10 05:58:29;;;;;;;13.27;12.17;;;;;;;;;;4958049;29;20446;-78
2023/07/10 06:00:58;;;;;;;14.23;12.90;;;;;;;;;;4959688;28;20736;-79
2023/07/10 06:03:27;;;;;;;12.20;11.20;;;;;;;;;;4959895;28;20789;-79
2023/07/10 06:05:56;;;;;;;13.70;12.60;;;;;;;;;;4959385;28;20449;-80
2023/07/10 06:08:24;;;;;;;14.63;12.83;;;;;;;;;;4959575;29;20419;-81
2023/07/10 06:10:52;;;;;;;12.77;11.57;;;;;;;;;;4958318;29;20424;-77
2023/07/10 06:13:20;;;;;;;13.80;12.60;;;;;;;;;;4959290;28;20535;-78
2023/07/10 06:15:51;;;;;;;15.70;12.20;;;;;;;;;;4961133;28;20520;-82
2023/07/10 06:18:19;;;;;;;13.00;11.90;;;;;;;;;;4959510;28;20511;-86
2023/07/10 06:20:53;;;;;;;13.70;11.90;;;;;;;;;;4961638;28;20457;-79
2023/07/10 06:23:23;;;;;;;14.70;13.20;;;;;;;;;;4960732;28;20431;-79
2023/07/10 06:25:54;;;;;;;13.10;11.90;;;;;;;;;;4956623;29;20439;-77
2023/07/10 06:28:21;;;;;;;11.60;10.77;;;;;;;;;;4959403;28;20782;-78
2023/07/10 06:30:55;;;;;;;15.03;11.70;;;;;;;;;;4960691;28;20426;-78
2023/07/10 06:33:22;;;;;;;12.50;11.40;;;;;;;;;;4962027;28;20422;-78
2023/07/10 06:35:50;;;;;;;13.37;12.37;;;;;;;;;;4961735;28;20849;-77
2023/07/10 06:38:18;;;;;;;14.60;13.37;;;;;;;;;;4961910;28;20483;-79
2023/07/10 06:40:48;;;;;;;16.37;12.67;;;;;;;;;;4961306;28;20453;-78
2023/07/10 06:43:16;;;;;;;13.07;11.97;;;;;;;;;;4952939;29;20420;-79
2023/07/10 06:45:44;;;;;;;14.03;12.73;;;;;;;;;;4962060;28;20678;-79
2023/07/10 06:48:11;;;;;;;13.43;12.13;;;;;;;;;;4966698;28;20434;-80
2023/07/10 06:50:39;;;;;;;15.37;14.10;;;;;;;;;;4974103;29;20465;-80
2023/07/10 06:53:07;;;;;;;15.33;11.23;;;;;;;;;;4965733;28;20491;-79
2023/07/10 06:55:56;;;;;;;16.93;12.00;;;;;;;;;;4959088;29;20455;-78
2023/07/10 06:58:23;;;;;;;16.07;12.20;;;;;;;;;;4961162;28;20434;-79
2023/07/10 07:00:51;;;;;;;16.80;13.43;;;;;;;;;;4960820;28;20423;-78
2023/07/10 07:03:18;;;;;;;14.00;12.33;;;;;;;;;;4955772;28;20449;-77
2023/07/10 07:05:47;;;;;;;13.20;12.13;;;;;;;;;;4958902;28;20432;-79
2023/07/10 07:08:17;;;;;;;13.50;12.30;;;;;;;;;;4955084;28;20426;-78
2023/07/10 07:10:45;;;;;;;13.73;12.40;;;;;;;;;;4957670;28;20537;-77
2023/07/10 07:13:13;;;;;;;12.93;11.87;;;;;;;;;;4953748;29;20424;-82
2023/07/10 07:15:51;;;;;;;12.97;11.30;;;;;;;;;;4959626;28;20559;-77
2023/07/10 07:18:19;;;;;;;15.53;12.80;;;;;;;;;;4959590;28;21008;-77
2023/07/10 07:20:49;;;;;;;13.77;12.50;;;;;;;;;;4955390;28;20469;-79
2023/07/10 07:23:17;;;;;;;14.60;13.20;;;;;;;;;;4960117;28;20445;-78
2023/07/10 07:25:45;;;;;;;13.90;12.60;;;;;;;;;;4961626;28;20477;-79
2023/07/10 07:28:12;;;;;;;13.73;12.00;;;;;;;;;;4958333;28;20597;-79
2023/07/10 07:30:47;;;;;;;13.43;12.30;;;;;;;;;;4955512;28;20503;-79
2023/07/10 07:33:16;;;;;;;13.50;12.20;;;;;;;;;;4960325;28;20708;-80
2023/07/10 07:35:43;;;;;;;13.43;11.30;;;;;;;;;;4947977;28;20520;-77
2023/07/10 07:38:13;;;;;;;11.70;10.73;;;;;;;;;;4953325;28;20465;-77
2023/07/10 07:40:40;;;;;;;12.63;11.43;;;;;;;;;;4956293;28;20420;-78
2023/07/10 07:43:09;;;;;;;15.17;13.77;;;;;;;;;;4952371;28;21046;-79
2023/07/10 07:45:37;;;;;;;12.97;11.67;;;;;;;;;;4959973;28;20502;-79
2023/07/10 07:48:04;;;;;;;14.70;12.23;;;;;;;;;;4966551;28;20461;-78
2023/07/10 07:50:33;;;;;;;13.10;11.90;;;;;;;;;;4958178;28;20525;-80
2023/07/10 07:53:00;;;;;;;12.10;11.07;;;;;;;;;;4957764;28;20524;-79
2023/07/10 07:55:28;;;;;;;12.30;11.20;;;;;;;;;;4961798;28;20488;-78
2023/07/10 07:57:57;;;;;;;12.70;11.70;;;;;;;;;;4959116;28;20504;-79
2023/07/10 08:00:25;;;;;;;11.87;10.73;;;;;;;;;;4961130;28;20635;-81
2023/07/10 08:02:54;;;;;;;11.70;10.70;;;;;;;;;;4960638;28;20737;-78
2023/07/10 08:05:23;;;;;;;12.27;11.07;;;;;;;;;;4960734;28;20686;-78
2023/07/10 08:07:56;;;;;;;11.40;10.60;;;;;;;;;;4959863;28;20667;-78
2023/07/10 08:10:23;;;;;;;12.70;10.60;;;;;;;;;;4961315;28;20839;-78
2023/07/10 08:12:51;;;;;;;12.43;10.30;;;;;;;;;;4961715;28;20442;-79
2023/07/10 08:15:21;;;;;;;12.50;11.50;;;;;;;;;;4961740;28;20649;-80
2023/07/10 08:17:48;;;;;;;11.40;10.20;;;;;;;;;;4957890;29;20793;-80
2023/07/10 08:20:16;;;;;;;10.97;10.17;;;;;;;;;;4954453;29;20445;-82
2023/07/10 08:22:43;;;;;;;11.70;10.67;;;;;;;;;;4960304;29;20484;-82
2023/07/10 08:25:11;;;;;;;15.33;10.80;;;;;;;;;;4961803;28;20701;-82
2023/07/10 08:27:38;;;;;;;10.83;9.90;;;;;;;;;;4958447;28;20505;-81
2023/07/10 08:30:08;;;;;;;10.63;9.80;;;;;;;;;;4959874;29;20473;-79
2023/07/10 08:32:35;;;;;;;10.83;9.90;;;;;;;;;;4960831;28;20691;-78
2023/07/10 08:35:03;;;;;;;12.53;8.73;;;;;;;;;;4960718;28;20509;-81
2023/07/10 08:37:30;;;;;;;9.70;8.93;;;;;;;;;;4960274;28;20448;-80
2023/07/10 08:39:58;;;;;;;10.23;9.47;;;;;;;;;;4961385;28;20497;-80
2023/07/10 08:42:30;;;;;;;10.30;9.60;;;;;;;;;;4953475;29;20889;-80
2023/07/10 08:44:59;;;;;;;9.90;9.20;;;;;;;;;;4957994;29;20501;-82
2023/07/10 08:47:35;;;;;;;9.00;8.40;;;;;;;;;;4959570;29;20446;-80
2023/07/10 08:50:11;;;;;;;12.67;9.50;;;;;;;;;;4960226;28;20457;-80
2023/07/10 08:53:03;;;;;;;9.80;9.10;;;;;;;;;;4954237;28;20452;-81
2023/07/10 08:55:45;;;;;;;9.83;9.10;;;;;;;;;;4957833;29;20526;-80
2023/07/10 08:58:21;;;;;;;10.10;9.20;;;;;;;;;;4959541;28;20464;-80
2023/07/10 09:00:51;;;;;;;10.27;9.27;;;;;;;;;;4952513;29;20442;-78
2023/07/10 09:03:29;;;;;;;11.80;10.77;;;;;;;;;;4955593;29;20513;-78
2023/07/10 09:05:58;;;;;;;11.03;10.07;;;;;;;;;;4958858;29;20441;-78
2023/07/10 09:08:27;;;;;;;13.27;12.07;;;;;;;;;;4959648;29;20457;-78
2023/07/10 09:10:58;;;;;;;11.50;10.70;;;;;;;;;;4963997;28;20796;-80
2023/07/10 09:13:29;;;;;;;10.77;9.87;;;;;;;;;;4962314;28;20441;-77
2023/07/10 09:15:59;;;;;;;10.60;9.70;;;;;;;;;;4958277;28;20825;-79
2023/07/10 09:18:35;;;;;;;10.23;9.33;;;;;;;;;;4959096;29;20500;-82
2023/07/10 09:21:13;;;;;;;10.00;9.30;;;;;;;;;;4960572;28;20433;-76
2023/07/10 09:23:40;;;;;;;10.67;9.80;;;;;;;;;;4959727;28;20449;-77
2023/07/10 09:26:12;;;;;;;10.93;10.03;;;;;;;;;;4959225;28;20602;-79
2023/07/10 09:28:41;;;;;;;11.40;10.50;;;;;;;;;;4954745;28;20450;-81
2023/07/10 09:31:26;;;;;;;10.90;9.80;;;;;;;;;;4956421;28;20454;-78
2023/07/10 09:34:00;;;;;;;11.03;10.03;;;;;;;;;;4958958;28;20441;-80
2023/07/10 09:36:28;;;;;;;11.47;10.57;;;;;;;;;;4959054;28;20517;-80
2023/07/10 09:39:03;;;;;;;11.77;10.70;;;;;;;;;;4960192;28;20445;-80
2023/07/10 09:41:30;;;;;;;12.73;9.90;;;;;;;;;;4959701;29;20437;-77
2023/07/10 09:44:01;;;;;;;11.50;10.40;;;;;;;;;;4961429;28;20442;-80
2023/07/10 09:46:30;;;;;;;10.30;9.50;;;;;;;;;;4963840;28;20441;-79
2023/07/10 09:49:03;;;;;;;10.57;9.80;;;;;;;;;;4970276;28;20703;-81
2023/07/10 09:51:36;;;;;;;11.37;10.30;;;;;;;;;;4970734;28;20465;-79
2023/07/10 09:54:06;;;;;;;11.90;10.27;;;;;;;;;;4958300;29;20415;-80
2023/07/10 09:56:38;;;;;;;13.17;10.30;;;;;;;;;;4960084;28;20500;-86
2023/07/10 09:59:27;;;;;;;11.10;10.17;;;;;;;;;;4965155;28;20763;-79
2023/07/10 10:01:55;;;;;;;14.43;10.57;;;;;;;;;;4958167;28;20564;-80
2023/07/10 10:04:27;;;;;;;11.30;10.30;;;;;;;;;;4958203;28;20419;-79
2023/07/10 10:07:01;;;;;;;11.47;10.67;;;;;;;;;;4957872;28;20446;-80
2023/07/10 10:09:30;;;;;;;14.50;11.50;;;;;;;;;;4949657;28;20451;-77
2023/07/10 10:12:01;;;;;;;12.47;11.50;;;;;;;;;;4953652;28;20495;-77
2023/07/10 10:14:34;;;;;;;11.73;10.70;;;;;;;;;;4959780;28;21033;-85
2023/07/10 10:17:04;;;;;;;12.80;11.00;;;;;;;;;;4959187;28;20561;-80
2023/07/10 10:19:32;;;;;;;11.37;10.37;;;;;;;;;;4958128;29;20487;-77
2023/07/10 10:22:00;;;;;;;12.30;11.30;;;;;;;;;;4959771;28;20481;-78
2023/07/10 10:24:32;;;;;;;12.13;11.13;;;;;;;;;;4959175;28;20508;-78
2023/07/10 10:27:09;;;;;;;11.50;10.40;;;;;;;;;;4958028;29;20428;-79
2023/07/10 10:29:47;;;;;;;12.43;11.30;;;;;;;;;;4959289;28;20477;-83
2023/07/10 10:32:27;;;;;;;19.77;11.40;;;;;;;;;;4959569;28;20478;-80
2023/07/10 10:35:24;;;;;;;12.40;10.83;;;;;;;;;;4955942;29;20411;-86
2023/07/10 10:38:12;;;;;;;11.13;10.33;;;;;;;;;;4954598;28;20486;-83
2023/07/10 10:40:42;;;;;;;12.10;10.30;;;;;;;;;;4959727;28;20531;-78
2023/07/10 10:43:22;;;;;;;15.00;10.93;;;;;;;;;;4960596;28;20465;-79
2023/07/10 10:45:52;;;;;;;10.40;9.47;;;;;;;;;;4959294;28;20420;-79
2023/07/10 10:48:45;;;;;;;11.60;10.43;;;;;;;;;;4958403;28;20535;-80
2023/07/10 10:51:24;;;;;;;10.00;9.10;;;;;;;;;;4958175;28;20748;-78
2023/07/10 10:54:00;;;;;;;10.40;9.30;;;;;;;;;;4954789;29;20698;-86
2023/07/10 10:56:52;;;;;;;11.53;10.43;;;;;;;;;;4958821;29;20872;-82
2023/07/10 10:59:21;;;;;;;13.23;9.70;;;;;;;;;;4957309;29;20454;-79
2023/07/10 11:01:51;;;;;;;11.87;10.80;;;;;;;;;;4958794;28;20533;-80
2023/07/10 11:04:26;;;;;;;15.40;11.47;;;;;;;;;;4958511;28;20473;-80
2023/07/10 11:06:54;;;;;;;12.60;11.30;;;;;;;;;;4958900;28;20661;-80
2023/07/10 11:09:26;;;;;;;12.67;11.57;;;;;;;;;;4954031;29;20445;-83
2023/07/10 11:11:54;;;;;;;12.27;11.07;;;;;;;;;;4958635;28;20512;-83
2023/07/10 11:14:22;;;;;;;12.30;9.90;;;;;;;;;;4959062;28;20453;-80
2023/07/10 11:16:52;;;;;;;10.97;9.97;;;;;;;;;;4962626;29;20483;-82
2023/07/10 11:19:25;;;;;;;11.47;10.63;;;;;;;;;;4964789;28;20461;-81
2023/07/10 11:21:54;;;;;;;10.87;10.07;;;;;;;;;;4963787;28;20465;-81
2023/07/10 11:24:32;;;;;;;11.60;10.70;;;;;;;;;;4955792;29;20528;-80
2023/07/10 11:27:02;;;;;;;12.47;11.40;;;;;;;;;;4963267;28;20532;-78
2023/07/10 11:29:43;;;;;;;11.00;9.43;;;;;;;;;;4961563;28;20457;-80
2023/07/10 11:32:20;;;;;;;12.63;11.07;;;;;;;;;;4962509;28;20445;-81
2023/07/10 11:34:56;;;;;;;12.80;11.50;;;;;;;;;;4955774;28;20456;-79
2023/07/10 11:37:41;;;;;;;13.27;9.87;;;;;;;;;;4957161;29;20584;-77
2023/07/10 11:40:24;;;;;;;11.10;10.20;;;;;;;;;;4964459;28;20513;-81
2023/07/10 11:42:52;;;;;;;11.80;10.90;;;;;;;;;;4964099;28;20842;-80
2023/07/10 11:45:25;;;;;;;11.10;10.30;;;;;;;;;;4964216;28;20556;-82
2023/07/10 11:47:53;;;;;;;11.60;10.50;;;;;;;;;;4962411;29;20446;-80
2023/07/10 11:50:29;;;;;;;12.37;11.37;;;;;;;;;;4962116;28;20445;-81
2023/07/10 11:53:07;;;;;;;10.10;9.30;;;;;;;;;;4962541;28;20493;-81
2023/07/10 11:55:42;;;;;;;11.27;10.23;;;;;;;;;;4961114;29;20603;-81
2023/07/10 11:58:24;;;;;;;10.30;9.40;;;;;;;;;;4963208;28;20436;-81
2023/07/10 12:00:58;;;;;;;10.57;9.67;;;;;;;;;;4962404;28;20449;-82
2023/07/10 12:03:30;;;;;;;11.40;10.40;;;;;;;;;;4962812;29;20460;-78
2023/07/10 12:05:58;;;;;;;10.70;9.63;;;;;;;;;;4957986;29;20437;-80
2023/07/10 12:08:29;;;;;;;14.97;10.87;;;;;;;;;;4960405;29;20509;-81
2023/07/10 12:10:57;;;;;;;11.20;10.30;;;;;;;;;;4956541;28;20446;-81
2023/07/10 12:13:29;;;;;;;10.37;9.60;;;;;;;;;;4961557;29;20475;-80
2023/07/10 12:15:59;;;;;;;11.10;10.20;;;;;;;;;;4957207;28;20484;-81
2023/07/10 12:18:32;;;;;;;10.30;9.40;;;;;;;;;;4961656;29;20449;-80
2023/07/10 12:21:04;;;;;;;11.37;10.03;;;;;;;;;;4962990;29;20445;-82
2023/07/10 12:23:32;;;;;;;12.37;11.07;;;;;;;;;;4954578;29;20911;-79
2023/07/10 12:26:01;;;;;;;10.50;9.77;;;;;;;;;;4961127;28;20742;-80
2023/07/10 12:28:30;;;;;;;14.33;10.33;;;;;;;;;;4960607;28;20461;-81
2023/07/10 12:31:01;;;;;;;10.93;10.00;;;;;;;;;;4960387;28;20517;-81
2023/07/10 12:33:32;;;;;;;9.67;8.87;;;;;;;;;;4961845;28;20972;-80
2023/07/10 12:36:02;;;;;;;12.43;10.80;;;;;;;;;;4961022;28;20460;-80
2023/07/10 12:38:31;;;;;;;11.63;10.43;;;;;;;;;;4952254;29;20442;-79
2023/07/10 12:40:59;;;;;;;10.90;10.00;;;;;;;;;;4961042;28;20456;-79
2023/07/10 12:43:28;;;;;;;10.27;9.47;;;;;;;;;;4961219;28;20574;-82
2023/07/10 12:45:57;;;;;;;10.80;9.90;;;;;;;;;;4960945;28;20456;-79
2023/07/10 12:48:26;;;;;;;11.13;10.03;;;;;;;;;;4970202;29;20524;-78
2023/07/10 12:50:57;;;;;;;10.07;8.97;;;;;;;;;;4974269;28;20469;-81
2023/07/10 12:53:25;;;;;;;10.00;9.10;;;;;;;;;;4956200;28;20437;-78
2023/07/10 12:55:54;;;;;;;11.83;10.83;;;;;;;;;;4959449;28;20446;-79
2023/07/10 12:58:35;;;;;;;11.70;10.57;;;;;;;;;;4959092;28;20445;-79
2023/07/10 13:01:16;;;;;;;11.33;10.43;;;;;;;;;;4959847;29;20456;-79
2023/07/10 13:03:44;;;;;;;12.70;11.60;;;;;;;;;;4957434;29;20669;-78
2023/07/10 13:06:17;;;;;;;10.47;9.60;;;;;;;;;;4960977;28;20511;-80
2023/07/10 13:08:47;;;;;;;11.30;10.20;;;;;;;;;;4958055;29;20490;-78
2023/07/10 13:11:22;;;;;;;10.23;9.33;;;;;;;;;;4959472;28;20473;-82
2023/07/10 13:14:07;;;;;;;10.00;9.30;;;;;;;;;;4959683;28;20547;-80
2023/07/10 13:16:43;;;;;;;11.77;10.77;;;;;;;;;;4959383;29;20492;-78
2023/07/10 13:19:11;;;;;;;10.37;9.57;;;;;;;;;;4959495;28;20524;-79
2023/07/10 13:21:39;;;;;;;10.67;9.77;;;;;;;;;;4960624;28;20463;-82
2023/07/10 13:24:07;;;;;;;10.57;9.63;;;;;;;;;;4952377;28;20462;-78
2023/07/10 13:26:36;;;;;;;10.20;9.07;;;;;;;;;;4959664;29;20445;-80
2023/07/10 13:29:14;;;;;;;8.87;8.17;;;;;;;;;;4958969;28;21020;-81
2023/07/10 13:31:52;;;;;;;11.00;10.10;;;;;;;;;;4958746;29;20447;-81
2023/07/10 13:34:45;;;;;;;9.80;8.83;;;;;;;;;;4943730;28;20758;-82
2023/07/10 13:37:30;;;;;;;7.70;7.10;;;;;;;;;;4961038;28;20465;-81
2023/07/10 13:40:12;;;;;;;9.30;8.50;;;;;;;;;;4957041;29;20435;-82
2023/07/10 13:42:43;;;;;;;8.10;7.50;;;;;;;;;;4960166;29;20461;-82
2023/07/10 13:45:12;;;;;;;9.90;9.20;;;;;;;;;;4959371;29;20456;-81
2023/07/10 13:47:53;;;;;;;8.93;8.17;;;;;;;;;;4960371;28;20476;-81
2023/07/10 13:50:24;;;;;;;9.30;8.50;;;;;;;;;;4954217;28;20462;-82
2023/07/10 13:52:55;;;;;;;8.40;7.80;;;;;;;;;;4959568;28;20441;-82
2023/07/10 13:55:24;;;;;;;8.50;7.80;;;;;;;;;;4959957;28;20609;-78
2023/07/10 13:57:51;;;;;;;8.97;8.13;;;;;;;;;;4960027;28;20484;-80
2023/07/10 14:00:18;;;;;;;9.83;8.83;;;;;;;;;;4960414;28;20818;-81
2023/07/10 14:02:51;;;;;;;8.17;7.47;;;;;;;;;;4956567;28;20424;-82
2023/07/10 14:05:23;;;;;;;8.70;7.90;;;;;;;;;;4953507;29;20529;-81
2023/07/10 14:07:51;;;;;;;9.00;8.30;;;;;;;;;;4960194;28;20449;-79
2023/07/10 14:10:22;;;;;;;9.53;8.57;;;;;;;;;;4959309;28;20861;-78
2023/07/10 14:12:50;;;;;;;8.90;8.10;;;;;;;;;;4956845;28;20489;-77
2023/07/10 14:15:18;;;;;;;9.27;8.67;;;;;;;;;;4958509;29;20493;-78
2023/07/10 14:17:46;;;;;;;9.13;8.53;;;;;;;;;;4934631;29;20480;-77
2023/07/10 14:20:18;;;;;;;8.67;8.07;;;;;;;;;;4958329;29;20792;-78
2023/07/10 14:22:46;;;;;;;9.10;8.40;;;;;;;;;;4958793;28;20467;-77
2023/07/10 14:25:14;;;;;;;8.80;8.10;;;;;;;;;;4958598;28;20475;-77
2023/07/10 14:27:44;;;;;;;8.07;7.57;;;;;;;;;;4958665;28;20690;-78
2023/07/10 14:30:16;;;;;;;10.47;9.10;;;;;;;;;;4958084;28;20796;-78
2023/07/10 14:32:44;;;;;;;11.53;10.33;;;;;;;;;;4958352;29;20445;-78
2023/07/10 14:35:17;;;;;;;9.73;8.30;;;;;;;;;;4956529;29;20449;-78
2023/07/10 14:37:45;;;;;;;9.17;8.37;;;;;;;;;;4953844;29;20488;-78
2023/07/10 14:40:14;;;;;;;9.13;8.33;;;;;;;;;;4958056;28;20449;-80
2023/07/10 14:42:43;;;;;;;9.90;9.00;;;;;;;;;;4957741;28;20862;-77
2023/07/10 14:45:15;;;;;;;9.00;7.90;;;;;;;;;;4958230;28;20460;-77
2023/07/10 14:47:43;;;;;;;8.47;7.83;;;;;;;;;;4953337;28;20688;-78
2023/07/10 14:50:11;;;;;;;9.40;8.70;;;;;;;;;;4959358;28;20480;-79